Time;durP1;ratioP1;P1;durP2;ratioP2;P2;SDS_P1;SDS_P2;PMS_P1;PMS_P2;Temp;Humidity;BMP_temperature;BMP_pressure;BME280_temperature;BME280_humidity;BME280_pressure;Samples;Min_cycle;Max_cycle;Signal;HPM_P1;HPM_P2
2023/07/22 00:01:06;;;;;;;;;;;;;;;;;;5070126;28;19999;-61
2023/07/22 00:03:31;;;;;;;;;;;;;;;;;;5075470;28;20015;-61
2023/07/22 00:05:57;;;;;;;;;;;;;;;;;;5075856;28;19986;-61
2023/07/22 00:08:23;;;;;;;;;;;;;;;;;;5074162;28;19920;-61
2023/07/22 00:10:49;;;;;;;;;;;;;;;;;;5075471;28;19931;-61
2023/07/22 00:13:15;;;;;;;;;;;;;;;;;;5075790;28;19967;-61
2023/07/22 00:15:41;;;;;;;;;;;;;;;;;;5073992;28;19938;-61
2023/07/22 00:18:07;;;;;;;;;;;;;;;;;;5075522;28;19966;-61
2023/07/22 00:20:33;;;;;;;;;;;;;;;;;;5075266;28;20279;-61
2023/07/22 00:22:59;;;;;;;;;;;;;;;;;;5075233;28;20022;-61
2023/07/22 00:25:24;;;;;;;;;;;;;;;;;;5074122;28;19955;-61
2023/07/22 00:27:50;;;;;;;;;;;;;;;;;;5075290;28;20369;-61
2023/07/22 00:30:17;;;;;;;;;;;;;;;;;;5073709;28;19971;-61
2023/07/22 00:32:43;;;;;;;;;;;;;;;;;;5075249;28;20026;-61
2023/07/22 00:35:12;;;;;;;;;;;;;;;;;;5075004;28;19920;-61
2023/07/22 00:37:38;;;;;;;;;;;;;;;;;;5075162;28;19924;-61
2023/07/22 00:40:06;;;;;;;;;;;;;;;;;;5073389;28;20358;-61
2023/07/22 00:42:31;;;;;;;;;;;;;;;;;;5074968;28;19936;-61
2023/07/22 00:44:57;;;;;;;;;;;;;;;;;;5074893;28;20332;-61
2023/07/22 00:47:23;;;;;;;;;;;;;;;;;;5073528;28;19974;-61
2023/07/22 00:49:49;;;;;;;;;;;;;;;;;;5074883;28;19959;-61
2023/07/22 00:52:16;;;;;;;;;;;;;;;;;;5074588;28;19920;-61
2023/07/22 00:54:42;;;;;;;;;;;;;;;;;;5073720;28;19951;-61
2023/07/22 00:57:08;;;;;;;;;;;;;;;;;;5073719;28;19963;-61
2023/07/22 00:59:34;;;;;;;;;;;;;;;;;;5074033;28;19920;-61
2023/07/22 01:02:00;;;;;;;;;;;;;;;;;;5073799;28;20014;-61
2023/07/22 01:04:25;;;;;;;;;;;;;;;;;;5074059;28;19930;-61
2023/07/22 01:06:55;;;;;;;;;;;;;;;;;;5066215;28;19921;-61
2023/07/22 01:09:20;;;;;;;;;;;;;;;;;;5053015;28;19978;-61
2023/07/22 01:11:46;;;;;;;;;;;;;;;;;;5052932;28;19928;-61
2023/07/22 01:14:12;;;;;;;;;;;;;;;;;;5054221;28;19920;-61
2023/07/22 01:16:38;;;;;;;;;;;;;;;;;;5054279;28;20031;-61
2023/07/22 01:19:04;;;;;;;;;;;;;;;;;;5054412;28;19928;-61
2023/07/22 01:21:30;;;;;;;;;;;;;;;;;;5052656;28;19928;-61
2023/07/22 01:23:57;;;;;;;;;;;;;;;;;;5054024;28;19924;-61
2023/07/22 01:26:23;;;;;;;;;;;;;;;;;;5054151;28;19925;-61
2023/07/22 01:28:49;;;;;;;;;;;;;;;;;;5054274;28;19941;-61
2023/07/22 01:31:14;;;;;;;;;;;;;;;;;;5054099;28;20274;-61
2023/07/22 01:33:40;;;;;;;;;;;;;;;;;;5054028;28;19939;-61
2023/07/22 01:36:07;;;;;;;;;;;;;;;;;;5053769;28;20011;-61
2023/07/22 01:38:33;;;;;;;;;;;;;;;;;;5053826;28;20417;-61
2023/07/22 01:40:59;;;;;;;;;;;;;;;;;;5052402;28;19980;-61
2023/07/22 01:43:25;;;;;;;;;;;;;;;;;;5053840;28;19925;-61
2023/07/22 01:45:53;;;;;;;;;;;;;;;;;;5053155;28;19925;-61
2023/07/22 01:48:18;;;;;;;;;;;;;;;;;;5052899;28;19929;-61
2023/07/22 01:50:44;;;;;;;;;;;;;;;;;;5053425;28;20384;-61
2023/07/22 01:53:10;;;;;;;;;;;;;;;;;;5052711;28;19921;-61
2023/07/22 01:55:36;;;;;;;;;;;;;;;;;;5053045;28;19920;-61
2023/07/22 01:58:02;;;;;;;;;;;;;;;;;;5052773;28;20382;-61
2023/07/22 02:00:28;;;;;;;;;;;;;;;;;;5052505;28;20019;-61
2023/07/22 02:02:54;;;;;;;;;;;;;;;;;;5051142;28;19956;-61
2023/07/22 02:05:20;;;;;;;;;;;;;;;;;;5052612;28;19929;-61
2023/07/22 02:07:46;;;;;;;;;;;;;;;;;;5052229;28;19925;-61
2023/07/22 02:10:13;;;;;;;;;;;;;;;;;;5052889;28;19931;-61
2023/07/22 02:12:39;;;;;;;;;;;;;;;;;;5053284;28;20042;-61
2023/07/22 02:15:05;;;;;;;;;;;;;;;;;;5053280;28;20356;-61
2023/07/22 02:17:31;;;;;;;;;;;;;;;;;;5053081;28;19991;-61
2023/07/22 02:19:56;;;;;;;;;;;;;;;;;;5053068;28;20008;-61
2023/07/22 02:22:22;;;;;;;;;;;;;;;;;;5052916;28;19933;-61
2023/07/22 02:24:48;;;;;;;;;;;;;;;;;;5052444;28;19979;-61
2023/07/22 02:27:14;;;;;;;;;;;;;;;;;;5052928;28;19921;-61
2023/07/22 02:29:40;;;;;;;;;;;;;;;;;;5051744;28;19921;-61
2023/07/22 02:32:06;;;;;;;;;;;;;;;;;;5052744;28;19921;-61
2023/07/22 02:34:32;;;;;;;;;;;;;;;;;;5053202;28;19924;-61
2023/07/22 02:36:58;;;;;;;;;;;;;;;;;;5053033;28;19924;-61
2023/07/22 02:39:24;;;;;;;;;;;;;;;;;;5051688;28;19927;-61
2023/07/22 02:41:50;;;;;;;;;;;;;;;;;;5052718;28;19921;-61
2023/07/22 02:44:15;;;;;;;;;;;;;;;;;;5051211;28;20017;-61
2023/07/22 02:46:41;;;;;;;;;;;;;;;;;;5052580;28;19921;-61
2023/07/22 02:49:07;;;;;;;;;;;;;;;;;;5051190;28;19921;-61
2023/07/22 02:51:33;;;;;;;;;;;;;;;;;;5051211;28;19956;-61
2023/07/22 02:53:59;;;;;;;;;;;;;;;;;;5052554;28;19925;-61
2023/07/22 02:56:25;;;;;;;;;;;;;;;;;;5052328;28;20263;-61
2023/07/22 02:58:51;;;;;;;;;;;;;;;;;;5051564;28;19920;-61
2023/07/22 03:01:18;;;;;;;;;;;;;;;;;;5051725;28;19921;-61
2023/07/22 03:03:44;;;;;;;;;;;;;;;;;;5051520;28;20421;-61
2023/07/22 03:06:10;;;;;;;;;;;;;;;;;;5051839;28;19921;-61
2023/07/22 03:08:36;;;;;;;;;;;;;;;;;;5051783;28;19925;-61
2023/07/22 03:11:03;;;;;;;;;;;;;;;;;;5052301;28;19925;-61
2023/07/22 03:13:29;;;;;;;;;;;;;;;;;;5050985;28;19929;-61
2023/07/22 03:15:55;;;;;;;;;;;;;;;;;;5050919;28;20446;-61
2023/07/22 03:18:21;;;;;;;;;;;;;;;;;;5051914;28;20440;-61
2023/07/22 03:20:47;;;;;;;;;;;;;;;;;;5052128;28;19967;-61
2023/07/22 03:23:13;;;;;;;;;;;;;;;;;;5051796;28;19928;-61
2023/07/22 03:25:39;;;;;;;;;;;;;;;;;;5052119;28;19925;-61
2023/07/22 03:28:05;;;;;;;;;;;;;;;;;;5052020;28;19944;-61
2023/07/22 03:30:31;;;;;;;;;;;;;;;;;;5050439;28;19920;-61
2023/07/22 03:32:57;;;;;;;;;;;;;;;;;;5051530;28;20646;-61
2023/07/22 03:35:23;;;;;;;;;;;;;;;;;;5049993;28;19925;-61
2023/07/22 03:37:49;;;;;;;;;;;;;;;;;;5051040;28;20354;-61
2023/07/22 03:40:28;;;;;;;;;;;;;;;;;;5051664;28;19928;-61
2023/07/22 03:42:54;;;;;;;;;;;;;;;;;;5051786;28;19928;-61
2023/07/22 03:45:20;;;;;;;;;;;;;;;;;;5051593;28;19925;-61
2023/07/22 03:47:46;;;;;;;;;;;;;;;;;;5051859;28;20501;-61
2023/07/22 03:50:11;;;;;;;;;;;;;;;;;;5051623;28;19921;-61
2023/07/22 03:52:38;;;;;;;;;;;;;;;;;;5051818;28;19966;-61
2023/07/22 03:55:05;;;;;;;;;;;;;;;;;;5033747;28;19963;-61
2023/07/22 03:57:30;;;;;;;;;;;;;;;;;;5051635;28;19929;-61
2023/07/22 03:59:56;;;;;;;;;;;;;;;;;;5051351;28;19967;-61
2023/07/22 04:02:22;;;;;;;;;;;;;;;;;;5051399;28;19953;-61
2023/07/22 04:04:48;;;;;;;;;;;;;;;;;;5051580;28;20286;-61
2023/07/22 04:07:14;;;;;;;;;;;;;;;;;;5050088;28;20394;-61
2023/07/22 04:09:40;;;;;;;;;;;;;;;;;;5050262;28;19974;-61
2023/07/22 04:12:06;;;;;;;;;;;;;;;;;;5051474;28;19987;-61
2023/07/22 04:14:32;;;;;;;;;;;;;;;;;;5049907;28;19964;-61
2023/07/22 04:16:58;;;;;;;;;;;;;;;;;;5050227;28;20343;-61
2023/07/22 04:19:24;;;;;;;;;;;;;;;;;;5051356;28;19927;-61
2023/07/22 04:21:50;;;;;;;;;;;;;;;;;;5051352;28;20011;-61
2023/07/22 04:24:16;;;;;;;;;;;;;;;;;;5051364;28;20434;-61
2023/07/22 04:26:42;;;;;;;;;;;;;;;;;;5051375;28;20256;-61
2023/07/22 04:29:07;;;;;;;;;;;;;;;;;;5049815;28;19972;-61
2023/07/22 04:31:33;;;;;;;;;;;;;;;;;;5051264;28;19925;-61
2023/07/22 04:33:59;;;;;;;;;;;;;;;;;;5049860;28;19928;-61
2023/07/22 04:36:25;;;;;;;;;;;;;;;;;;5051108;28;19920;-61
2023/07/22 04:38:51;;;;;;;;;;;;;;;;;;5051112;28;19920;-61
2023/07/22 04:41:17;;;;;;;;;;;;;;;;;;5050980;28;19967;-61
2023/07/22 04:43:43;;;;;;;;;;;;;;;;;;5050984;28;20326;-61
2023/07/22 04:46:09;;;;;;;;;;;;;;;;;;5050916;28;19920;-61
2023/07/22 04:48:36;;;;;;;;;;;;;;;;;;5052164;28;19943;-61
2023/07/22 04:51:02;;;;;;;;;;;;;;;;;;5054594;28;20414;-61
2023/07/22 04:53:28;;;;;;;;;;;;;;;;;;5054806;28;20020;-61
2023/07/22 04:55:55;;;;;;;;;;;;;;;;;;5054122;28;19925;-61
2023/07/22 04:58:20;;;;;;;;;;;;;;;;;;5053515;28;19925;-61
2023/07/22 05:00:46;;;;;;;;;;;;;;;;;;5053849;28;20351;-61
2023/07/22 05:03:13;;;;;;;;;;;;;;;;;;5053898;28;19925;-61
2023/07/22 05:05:39;;;;;;;;;;;;;;;;;;5052440;28;19952;-61
2023/07/22 05:08:07;;;;;;;;;;;;;;;;;;5053440;28;19925;-61
2023/07/22 05:10:32;;;;;;;;;;;;;;;;;;5054084;28;20370;-61
2023/07/22 05:12:58;;;;;;;;;;;;;;;;;;5058027;28;20058;-61
2023/07/22 05:15:25;;;;;;;;;;;;;;;;;;5074464;28;19924;-61
2023/07/22 05:17:51;;;;;;;;;;;;;;;;;;5074336;28;20339;-60
2023/07/22 05:20:17;;;;;;;;;;;;;;;;;;5074258;28;20325;-61
2023/07/22 05:22:42;;;;;;;;;;;;;;;;;;5072742;28;19931;-61
2023/07/22 05:25:09;;;;;;;;;;;;;;;;;;5073831;28;19933;-61
2023/07/22 05:27:35;;;;;;;;;;;;;;;;;;5073971;28;19974;-61
2023/07/22 05:30:01;;;;;;;;;;;;;;;;;;5074011;28;19964;-61
2023/07/22 05:32:27;;;;;;;;;;;;;;;;;;5073863;28;19924;-61
2023/07/22 05:34:53;;;;;;;;;;;;;;;;;;5072473;28;19921;-61
2023/07/22 05:37:19;;;;;;;;;;;;;;;;;;5073858;28;19972;-61
2023/07/22 05:39:45;;;;;;;;;;;;;;;;;;5073870;28;19921;-61
2023/07/22 05:42:11;;;;;;;;;;;;;;;;;;5073584;28;20031;-61
2023/07/22 05:44:37;;;;;;;;;;;;;;;;;;5073886;28;20489;-61
2023/07/22 05:47:03;;;;;;;;;;;;;;;;;;5073685;28;19927;-61
2023/07/22 05:49:28;;;;;;;;;;;;;;;;;;5072160;28;20329;-61
2023/07/22 05:51:54;;;;;;;;;;;;;;;;;;5073442;28;20295;-61
2023/07/22 05:54:20;;;;;;;;;;;;;;;;;;5073552;28;19921;-61
2023/07/22 05:56:46;;;;;;;;;;;;;;;;;;5073245;28;19921;-61
2023/07/22 05:59:12;;;;;;;;;;;;;;;;;;5072544;28;19987;-61
2023/07/22 06:01:38;;;;;;;;;;;;;;;;;;5073384;28;19975;-61
2023/07/22 06:04:04;;;;;;;;;;;;;;;;;;5073432;28;20443;-61
2023/07/22 06:06:30;;;;;;;;;;;;;;;;;;5071762;28;19931;-62
2023/07/22 06:08:56;;;;;;;;;;;;;;;;;;5073289;28;19928;-61
2023/07/22 06:11:22;;;;;;;;;;;;;;;;;;5073073;28;20275;-61
2023/07/22 06:13:48;;;;;;;;;;;;;;;;;;5073233;28;20110;-61
2023/07/22 06:16:13;;;;;;;;;;;;;;;;;;5073036;28;19920;-61
2023/07/22 06:18:39;;;;;;;;;;;;;;;;;;5072978;28;19925;-61
2023/07/22 06:21:05;;;;;;;;;;;;;;;;;;5071673;28;19920;-61
2023/07/22 06:23:31;;;;;;;;;;;;;;;;;;5071509;28;20024;-61
2023/07/22 06:25:57;;;;;;;;;;;;;;;;;;5072643;28;19921;-61
2023/07/22 06:28:23;;;;;;;;;;;;;;;;;;5073078;28;19931;-62
2023/07/22 06:30:49;;;;;;;;;;;;;;;;;;5072984;28;19924;-62
2023/07/22 06:33:16;;;;;;;;;;;;;;;;;;5071343;28;19920;-61
2023/07/22 06:35:42;;;;;;;;;;;;;;;;;;5071488;28;20002;-62
2023/07/22 06:38:08;;;;;;;;;;;;;;;;;;5072576;28;19927;-61
2023/07/22 06:40:34;;;;;;;;;;;;;;;;;;5072673;28;19921;-61
2023/07/22 06:42:59;;;;;;;;;;;;;;;;;;5054344;28;19920;-61
2023/07/22 06:45:25;;;;;;;;;;;;;;;;;;5072361;28;20321;-61
2023/07/22 06:47:51;;;;;;;;;;;;;;;;;;5072332;28;19920;-61
2023/07/22 06:50:17;;;;;;;;;;;;;;;;;;5071011;28;19921;-61
2023/07/22 06:52:43;;;;;;;;;;;;;;;;;;5072247;28;20390;-61
2023/07/22 06:55:09;;;;;;;;;;;;;;;;;;5072368;28;19924;-61
2023/07/22 06:57:35;;;;;;;;;;;;;;;;;;5072359;28;19920;-61
2023/07/22 07:00:01;;;;;;;;;;;;;;;;;;5072010;28;20289;-61
2023/07/22 07:02:27;;;;;;;;;;;;;;;;;;5071853;28;19925;-62
2023/07/22 07:04:53;;;;;;;;;;;;;;;;;;5071228;28;19967;-62
2023/07/22 07:07:19;;;;;;;;;;;;;;;;;;5071092;28;19924;-61
2023/07/22 07:09:45;;;;;;;;;;;;;;;;;;5071266;28;19925;-61
2023/07/22 07:12:10;;;;;;;;;;;;;;;;;;5071165;28;19927;-61
2023/07/22 07:14:36;;;;;;;;;;;;;;;;;;5071399;28;20356;-62
2023/07/22 07:17:02;;;;;;;;;;;;;;;;;;5070326;28;19926;-61
2023/07/22 07:19:28;;;;;;;;;;;;;;;;;;5053132;28;19924;-61
2023/07/22 07:21:54;;;;;;;;;;;;;;;;;;5064727;28;19974;-61
2023/07/22 07:24:20;;;;;;;;;;;;;;;;;;5049625;28;19974;-61
2023/07/22 07:26:46;;;;;;;;;;;;;;;;;;5051036;28;19920;-62
2023/07/22 07:29:12;;;;;;;;;;;;;;;;;;5050997;28;20394;-61
2023/07/22 07:31:38;;;;;;;;;;;;;;;;;;5050999;28;19920;-61
2023/07/22 07:34:03;;;;;;;;;;;;;;;;;;5050819;28;19924;-62
2023/07/22 07:36:29;;;;;;;;;;;;;;;;;;5049497;28;19920;-61
2023/07/22 07:38:55;;;;;;;;;;;;;;;;;;5051366;28;19959;-61
2023/07/22 07:41:21;;;;;;;;;;;;;;;;;;5051805;28;19987;-61
2023/07/22 07:43:47;;;;;;;;;;;;;;;;;;5050383;28;20401;-61
2023/07/22 07:46:13;;;;;;;;;;;;;;;;;;5051842;28;19921;-61
2023/07/22 07:48:39;;;;;;;;;;;;;;;;;;5051694;28;19921;-61
2023/07/22 07:51:05;;;;;;;;;;;;;;;;;;5051662;28;20297;-62
2023/07/22 07:53:31;;;;;;;;;;;;;;;;;;5051351;28;19924;-62
2023/07/22 07:55:56;;;;;;;;;;;;;;;;;;5051497;28;19921;-61
2023/07/22 07:58:22;;;;;;;;;;;;;;;;;;5051586;28;19921;-61
2023/07/22 08:00:48;;;;;;;;;;;;;;;;;;5050398;28;19925;-62
2023/07/22 08:03:15;;;;;;;;;;;;;;;;;;5051315;28;20398;-61
2023/07/22 08:05:40;;;;;;;;;;;;;;;;;;5050217;28;20019;-62
2023/07/22 08:08:06;;;;;;;;;;;;;;;;;;5051011;28;20003;-61
2023/07/22 08:10:32;;;;;;;;;;;;;;;;;;5051613;28;19925;-62
2023/07/22 08:12:59;;;;;;;;;;;;;;;;;;5051562;28;19932;-62
2023/07/22 08:15:25;;;;;;;;;;;;;;;;;;5051576;28;20000;-61
2023/07/22 08:17:51;;;;;;;;;;;;;;;;;;5051431;28;19956;-61
2023/07/22 08:20:19;;;;;;;;;;;;;;;;;;5050657;28;21297;-62
2023/07/22 08:22:44;;;;;;;;;;;;;;;;;;5049583;22;20378;-65
2023/07/22 08:25:10;;;;;;;;;;;;;;;;;;5036069;28;20267;-65
2023/07/22 08:27:36;;;;;;;;;;;;;;;;;;5035964;28;19921;-65
2023/07/22 08:30:02;;;;;;;;;;;;;;;;;;5035790;28;19963;-65
2023/07/22 08:32:28;;;;;;;;;;;;;;;;;;5029163;28;20007;-66
2023/07/22 08:34:54;;;;;;;;;;;;;;;;;;5033727;28;19991;-66
2023/07/22 08:37:20;;;;;;;;;;;;;;;;;;5033942;28;20362;-66
2023/07/22 08:39:46;;;;;;;;;;;;;;;;;;5030555;28;19928;-66
2023/07/22 08:42:12;;;;;;;;;;;;;;;;;;5030704;28;19969;-66
2023/07/22 08:44:38;;;;;;;;;;;;;;;;;;5031983;28;19928;-66
2023/07/22 08:47:04;;;;;;;;;;;;;;;;;;5032446;28;20271;-66
2023/07/22 08:49:30;;;;;;;;;;;;;;;;;;5031907;28;19929;-66
2023/07/22 08:51:56;;;;;;;;;;;;;;;;;;5029165;28;20043;-66
2023/07/22 08:54:22;;;;;;;;;;;;;;;;;;5027938;28;20008;-66
2023/07/22 08:56:49;;;;;;;;;;;;;;;;;;5029818;28;20453;-66
2023/07/22 08:59:16;;;;;;;;;;;;;;;;;;5030135;28;19925;-66
2023/07/22 09:01:42;;;;;;;;;;;;;;;;;;5027452;28;20032;-64
2023/07/22 09:04:07;;;;;;;;;;;;;;;;;;5027284;28;20446;-66
2023/07/22 09:06:33;;;;;;;;;;;;;;;;;;5031125;28;19936;-66
2023/07/22 09:09:00;;;;;;;;;;;;;;;;;;5031923;28;20286;-65
2023/07/22 09:11:26;;;;;;;;;;;;;;;;;;5028287;28;19925;-66
2023/07/22 09:13:52;;;;;;;;;;;;;;;;;;5030640;28;19921;-65
2023/07/22 09:16:18;;;;;;;;;;;;;;;;;;5029787;28;19921;-66
2023/07/22 09:18:43;;;;;;;;;;;;;;;;;;5029029;28;19921;-65
2023/07/22 09:21:10;;;;;;;;;;;;;;;;;;5032415;28;20095;-66
2023/07/22 09:23:36;;;;;;;;;;;;;;;;;;5030694;28;19973;-66
2023/07/22 09:26:02;;;;;;;;;;;;;;;;;;5030757;28;19921;-66
2023/07/22 09:28:28;;;;;;;;;;;;;;;;;;5031367;28;19983;-65
2023/07/22 09:30:54;;;;;;;;;;;;;;;;;;5030738;28;20603;-66
2023/07/22 09:33:20;;;;;;;;;;;;;;;;;;5031260;28;19925;-65
2023/07/22 09:35:46;;;;;;;;;;;;;;;;;;5033081;28;20282;-66
2023/07/22 09:38:12;;;;;;;;;;;;;;;;;;5032374;28;19984;-66
2023/07/22 09:40:37;;;;;;;;;;;;;;;;;;5030910;28;19928;-65
2023/07/22 09:43:03;;;;;;;;;;;;;;;;;;5032788;28;19947;-65
2023/07/22 09:45:29;;;;;;;;;;;;;;;;;;5030475;28;19988;-65
2023/07/22 09:47:55;;;;;;;;;;;;;;;;;;5032068;28;20058;-65
2023/07/22 09:50:24;;;;;;;;;;;;;;;;;;5032809;28;20298;-66
2023/07/22 09:52:50;;;;;;;;;;;;;;;;;;5030827;28;20024;-66
2023/07/22 09:55:17;;;;;;;;;;;;;;;;;;5032321;28;20859;-66
2023/07/22 09:57:44;;;;;;;;;;;;;;;;;;5031939;28;19928;-66
2023/07/22 10:00:10;;;;;;;;;;;;;;;;;;5031288;28;19983;-66
2023/07/22 10:02:36;;;;;;;;;;;;;;;;;;5031296;28;20313;-66
2023/07/22 10:05:03;;;;;;;;;;;;;;;;;;5031637;28;19972;-66
2023/07/22 10:07:29;;;;;;;;;;;;;;;;;;5032592;28;21119;-65
2023/07/22 10:09:55;;;;;;;;;;;;;;;;;;5031025;28;19964;-65
2023/07/22 10:12:21;;;;;;;;;;;;;;;;;;5032689;28;20008;-65
2023/07/22 10:14:47;;;;;;;;;;;;;;;;;;5031796;28;19964;-65
2023/07/22 10:17:13;;;;;;;;;;;;;;;;;;5032576;28;19925;-65
2023/07/22 10:19:39;;;;;;;;;;;;;;;;;;5029762;28;19948;-65
2023/07/22 10:22:05;;;;;;;;;;;;;;;;;;5047081;28;19929;-65
2023/07/22 10:24:31;;;;;;;;;;;;;;;;;;5031280;28;19937;-66
2023/07/22 10:26:57;;;;;;;;;;;;;;;;;;5032070;28;19943;-65
2023/07/22 10:29:23;;;;;;;;;;;;;;;;;;5033224;28;19921;-65
2023/07/22 10:31:52;;;;;;;;;;;;;;;;;;5030834;28;20016;-66
2023/07/22 10:34:18;;;;;;;;;;;;;;;;;;5030004;28;19921;-65
2023/07/22 10:36:44;;;;;;;;;;;;;;;;;;5031442;28;19921;-65
2023/07/22 10:39:10;;;;;;;;;;;;;;;;;;5014824;28;20603;-65
2023/07/22 10:41:36;;;;;;;;;;;;;;;;;;5030677;28;19968;-65
2023/07/22 10:44:02;;;;;;;;;;;;;;;;;;5031277;28;19928;-65
2023/07/22 10:46:28;;;;;;;;;;;;;;;;;;5030050;28;19925;-65
2023/07/22 10:48:55;;;;;;;;;;;;;;;;;;5031821;28;19925;-65
2023/07/22 10:51:21;;;;;;;;;;;;;;;;;;5031930;28;19921;-65
2023/07/22 10:53:46;;;;;;;;;;;;;;;;;;5030946;28;19921;-65
2023/07/22 10:56:12;;;;;;;;;;;;;;;;;;5029903;28;19921;-65
2023/07/22 10:58:38;;;;;;;;;;;;;;;;;;5031634;28;19979;-65
2023/07/22 11:01:04;;;;;;;;;;;;;;;;;;5030655;28;19972;-65
2023/07/22 11:03:30;;;;;;;;;;;;;;;;;;5031625;28;19935;-65
2023/07/22 11:05:56;;;;;;;;;;;;;;;;;;5031558;28;19925;-65
2023/07/22 11:08:22;;;;;;;;;;;;;;;;;;5031309;28;19932;-65
2023/07/22 11:10:48;;;;;;;;;;;;;;;;;;5030260;28;20366;-65
2023/07/22 11:13:14;;;;;;;;;;;;;;;;;;5032492;28;19956;-65
2023/07/22 11:15:39;;;;;;;;;;;;;;;;;;5030778;28;20671;-66
2023/07/22 11:18:05;;;;;;;;;;;;;;;;;;5031412;28;19925;-65
2023/07/22 11:20:31;;;;;;;;;;;;;;;;;;5012887;28;19921;-66
2023/07/22 11:22:57;;;;;;;;;;;;;;;;;;5031865;28;19925;-66
2023/07/22 11:25:23;;;;;;;;;;;;;;;;;;5028558;28;20012;-65
2023/07/22 11:27:49;;;;;;;;;;;;;;;;;;5031247;28;19925;-66
2023/07/22 11:30:15;;;;;;;;;;;;;;;;;;5031588;28;19933;-66
2023/07/22 11:32:41;;;;;;;;;;;;;;;;;;5031002;28;20263;-66
2023/07/22 11:35:07;;;;;;;;;;;;;;;;;;5029939;28;19921;-66
2023/07/22 11:37:33;;;;;;;;;;;;;;;;;;5031003;28;20359;-66
2023/07/22 11:39:59;;;;;;;;;;;;;;;;;;5029290;28;19920;-66
2023/07/22 11:42:25;;;;;;;;;;;;;;;;;;5029148;28;20359;-65
2023/07/22 11:44:51;;;;;;;;;;;;;;;;;;5030842;28;19975;-65
2023/07/22 11:47:17;;;;;;;;;;;;;;;;;;5027735;28;20397;-66
2023/07/22 11:49:43;;;;;;;;;;;;;;;;;;5031192;28;19921;-66
2023/07/22 11:52:09;;;;;;;;;;;;;;;;;;5030107;28;19921;-66
2023/07/22 11:54:35;;;;;;;;;;;;;;;;;;5028721;28;19931;-66
2023/07/22 11:57:01;;;;;;;;;;;;;;;;;;5030538;28;20004;-66
2023/07/22 11:59:27;;;;;;;;;;;;;;;;;;5033917;28;19921;-66
2023/07/22 12:01:52;;;;;;;;;;;;;;;;;;5038745;28;20267;-67
2023/07/22 12:04:18;;;;;;;;;;;;;;;;;;5034870;28;19948;-66
2023/07/22 12:06:44;;;;;;;;;;;;;;;;;;5034125;28;19925;-66
2023/07/22 12:09:10;;;;;;;;;;;;;;;;;;5034962;28;20367;-66
2023/07/22 12:11:36;;;;;;;;;;;;;;;;;;5035537;28;20367;-66
2023/07/22 12:14:03;;;;;;;;;;;;;;;;;;5034684;28;19978;-66
2023/07/22 12:16:29;;;;;;;;;;;;;;;;;;5034760;28;19921;-65
2023/07/22 12:18:56;;;;;;;;;;;;;;;;;;5031995;28;20675;-66
2023/07/22 12:21:22;;;;;;;;;;;;;;;;;;5034075;28;20389;-65
2023/07/22 12:23:47;;;;;;;;;;;;;;;;;;5033037;28;19975;-66
2023/07/22 12:26:13;;;;;;;;;;;;;;;;;;5031458;28;19968;-66
2023/07/22 12:28:39;;;;;;;;;;;;;;;;;;5034192;28;19947;-65
2023/07/22 12:31:05;;;;;;;;;;;;;;;;;;5031998;28;19921;-66
2023/07/22 12:33:31;;;;;;;;;;;;;;;;;;5034877;28;19970;-66
2023/07/22 12:35:57;;;;;;;;;;;;;;;;;;5034962;28;19979;-66
2023/07/22 12:38:23;;;;;;;;;;;;;;;;;;5027278;28;20329;-66
2023/07/22 12:40:49;;;;;;;;;;;;;;;;;;5030504;28;19924;-65
2023/07/22 12:43:15;;;;;;;;;;;;;;;;;;5032932;28;19921;-65
2023/07/22 12:45:41;;;;;;;;;;;;;;;;;;5032480;28;19929;-65
2023/07/22 12:48:07;;;;;;;;;;;;;;;;;;5034682;28;20062;-65
2023/07/22 12:50:33;;;;;;;;;;;;;;;;;;5034861;28;19921;-65
2023/07/22 12:52:59;;;;;;;;;;;;;;;;;;5033449;28;19928;-66
2023/07/22 12:55:24;;;;;;;;;;;;;;;;;;5033771;28;20356;-65
2023/07/22 12:57:50;;;;;;;;;;;;;;;;;;5015760;28;20051;-65
2023/07/22 13:00:16;;;;;;;;;;;;;;;;;;5034004;28;19928;-65
2023/07/22 13:02:42;;;;;;;;;;;;;;;;;;5033212;28;20389;-65
2023/07/22 13:05:08;;;;;;;;;;;;;;;;;;5031103;28;20310;-66
2023/07/22 13:07:34;;;;;;;;;;;;;;;;;;5031943;28;19932;-65
2023/07/22 13:10:02;;;;;;;;;;;;;;;;;;5030247;28;19971;-65
2023/07/22 13:12:28;;;;;;;;;;;;;;;;;;5031874;28;19921;-65
2023/07/22 13:14:54;;;;;;;;;;;;;;;;;;5032184;28;19975;-65
2023/07/22 13:17:20;;;;;;;;;;;;;;;;;;5034359;28;19929;-66
2023/07/22 13:19:46;;;;;;;;;;;;;;;;;;5032150;28;20032;-65
2023/07/22 13:22:12;;;;;;;;;;;;;;;;;;5030102;28;20004;-65
2023/07/22 13:24:38;;;;;;;;;;;;;;;;;;5016393;28;20370;-65
2023/07/22 13:27:04;;;;;;;;;;;;;;;;;;5029638;28;19924;-65
2023/07/22 13:29:30;;;;;;;;;;;;;;;;;;5031054;28;19986;-66
2023/07/22 13:31:56;;;;;;;;;;;;;;;;;;5030737;28;19925;-65
2023/07/22 13:34:22;;;;;;;;;;;;;;;;;;5019214;28;19979;-65
2023/07/22 13:36:48;;;;;;;;;;;;;;;;;;5024774;28;19933;-65
2023/07/22 13:39:14;;;;;;;;;;;;;;;;;;5029979;28;19972;-65
2023/07/22 13:41:40;;;;;;;;;;;;;;;;;;5027386;28;19932;-67
2023/07/22 13:44:05;;;;;;;;;;;;;;;;;;5030786;28;20322;-66
2023/07/22 13:46:31;;;;;;;;;;;;;;;;;;5031783;28;19932;-67
2023/07/22 13:48:57;;;;;;;;;;;;;;;;;;5024616;28;19983;-66
2023/07/22 13:51:23;;;;;;;;;;;;;;;;;;5020750;28;20268;-66
2023/07/22 13:53:49;;;;;;;;;;;;;;;;;;5026420;28;19925;-67
2023/07/22 13:56:15;;;;;;;;;;;;;;;;;;5028428;28;19956;-66
2023/07/22 13:58:41;;;;;;;;;;;;;;;;;;5016965;28;20320;-66
2023/07/22 14:01:08;;;;;;;;;;;;;;;;;;5029661;28;19931;-66
2023/07/22 14:03:34;;;;;;;;;;;;;;;;;;5030106;28;19976;-67
2023/07/22 14:06:00;;;;;;;;;;;;;;;;;;5029908;28;20355;-66
2023/07/22 14:08:26;;;;;;;;;;;;;;;;;;5028620;28;19963;-66
2023/07/22 14:10:52;;;;;;;;;;;;;;;;;;5031970;28;19925;-66
2023/07/22 14:13:18;;;;;;;;;;;;;;;;;;5029835;28;20015;-66
2023/07/22 14:15:44;;;;;;;;;;;;;;;;;;5020668;28;19925;-66
2023/07/22 14:18:10;;;;;;;;;;;;;;;;;;5031065;28;19928;-66
2023/07/22 14:20:35;;;;;;;;;;;;;;;;;;5030510;28;19925;-66
2023/07/22 14:23:03;;;;;;;;;;;;;;;;;;5029622;28;19972;-66
2023/07/22 14:25:29;;;;;;;;;;;;;;;;;;5029693;28;20015;-66
2023/07/22 14:27:55;;;;;;;;;;;;;;;;;;5027993;28;20016;-66
2023/07/22 14:30:21;;;;;;;;;;;;;;;;;;5026822;28;19921;-66
2023/07/22 14:32:47;;;;;;;;;;;;;;;;;;5022543;28;19967;-65
2023/07/22 14:35:13;;;;;;;;;;;;;;;;;;5020168;28;19925;-66
2023/07/22 14:37:39;;;;;;;;;;;;;;;;;;5040020;28;20007;-66
2023/07/22 14:40:05;;;;;;;;;;;;;;;;;;5027222;28;19921;-66
2023/07/22 14:42:31;;;;;;;;;;;;;;;;;;5029343;28;19929;-65
2023/07/22 14:44:57;;;;;;;;;;;;;;;;;;5031059;28;19927;-66
2023/07/22 14:47:23;;;;;;;;;;;;;;;;;;5029273;28;19947;-65
2023/07/22 14:49:48;;;;;;;;;;;;;;;;;;5015473;28;19932;-65
2023/07/22 14:52:14;;;;;;;;;;;;;;;;;;5030963;28;19932;-65
2023/07/22 14:54:40;;;;;;;;;;;;;;;;;;5030069;28;19944;-66
2023/07/22 14:57:06;;;;;;;;;;;;;;;;;;5031961;28;20000;-65
2023/07/22 14:59:32;;;;;;;;;;;;;;;;;;5032215;28;20283;-66
2023/07/22 15:01:58;;;;;;;;;;;;;;;;;;5031663;28;19929;-65
2023/07/22 15:04:24;;;;;;;;;;;;;;;;;;5031838;28;20271;-65
2023/07/22 15:06:50;;;;;;;;;;;;;;;;;;5020455;28;19929;-65
2023/07/22 15:09:16;;;;;;;;;;;;;;;;;;5028799;28;20008;-65
2023/07/22 15:11:42;;;;;;;;;;;;;;;;;;5031555;28;19925;-65
2023/07/22 15:14:08;;;;;;;;;;;;;;;;;;5030848;28;19928;-65
2023/07/22 15:16:33;;;;;;;;;;;;;;;;;;5028592;28;19975;-65
2023/07/22 15:18:59;;;;;;;;;;;;;;;;;;5030264;28;19982;-65
2023/07/22 15:21:26;;;;;;;;;;;;;;;;;;5027469;28;20051;-65
2023/07/22 15:23:52;;;;;;;;;;;;;;;;;;5021926;28;19968;-66
2023/07/22 15:26:18;;;;;;;;;;;;;;;;;;5029878;28;19964;-65
2023/07/22 15:28:44;;;;;;;;;;;;;;;;;;5030514;28;19975;-65
2023/07/22 15:31:10;;;;;;;;;;;;;;;;;;5031031;28;19929;-65
2023/07/22 15:33:36;;;;;;;;;;;;;;;;;;5026167;28;20271;-65
2023/07/22 15:36:02;;;;;;;;;;;;;;;;;;5024914;28;19967;-65
2023/07/22 15:38:28;;;;;;;;;;;;;;;;;;5027431;28;19996;-65
2023/07/22 15:40:54;;;;;;;;;;;;;;;;;;5026615;28;19928;-65
2023/07/22 15:43:20;;;;;;;;;;;;;;;;;;5023414;28;19925;-65
2023/07/22 15:45:45;;;;;;;;;;;;;;;;;;5022706;28;20668;-65
2023/07/22 15:48:11;;;;;;;;;;;;;;;;;;5015211;28;20318;-65
2023/07/22 15:50:37;;;;;;;;;;;;;;;;;;5024678;28;19929;-65
2023/07/22 15:53:03;;;;;;;;;;;;;;;;;;5027770;28;19964;-65
2023/07/22 15:55:29;;;;;;;;;;;;;;;;;;5025588;28;19960;-65
2023/07/22 15:57:55;;;;;;;;;;;;;;;;;;5024901;28;19928;-65
2023/07/22 16:00:22;;;;;;;;;;;;;;;;;;5025713;28;19975;-65
2023/07/22 16:02:48;;;;;;;;;;;;;;;;;;5027888;28;20015;-65
2023/07/22 16:05:14;;;;;;;;;;;;;;;;;;5029011;28;20024;-65
2023/07/22 16:07:40;;;;;;;;;;;;;;;;;;5029737;28;19931;-65
2023/07/22 16:10:06;;;;;;;;;;;;;;;;;;5027551;28;20342;-65
2023/07/22 16:12:32;;;;;;;;;;;;;;;;;;5030645;28;20008;-65
2023/07/22 16:14:58;;;;;;;;;;;;;;;;;;5027287;28;19921;-65
2023/07/22 16:17:24;;;;;;;;;;;;;;;;;;5027807;28;19921;-65
2023/07/22 16:19:50;;;;;;;;;;;;;;;;;;5028518;28;19983;-64
2023/07/22 16:22:16;;;;;;;;;;;;;;;;;;5026332;28;19929;-65
2023/07/22 16:24:42;;;;;;;;;;;;;;;;;;5029975;28;19928;-65
2023/07/22 16:27:08;;;;;;;;;;;;;;;;;;5026051;28;20436;-65
2023/07/22 16:29:36;;;;;;;;;;;;;;;;;;5028430;28;20347;-65
2023/07/22 16:32:03;;;;;;;;;;;;;;;;;;5027006;28;20329;-65
2023/07/22 16:34:28;;;;;;;;;;;;;;;;;;5026594;28;19925;-65
2023/07/22 16:36:54;;;;;;;;;;;;;;;;;;5026565;28;20342;-65